createdAt,value
2022-11-09T08:12:07.593Z,13.00
2022-11-09T08:14:39.536Z,13.00
2022-11-09T08:17:11.478Z,13.00
2022-11-09T08:19:43.364Z,12.90
2022-11-09T08:22:15.400Z,13.00
2022-11-09T08:24:47.258Z,13.00
2022-11-09T08:27:19.119Z,13.00
2022-11-09T08:29:50.998Z,13.00
2022-11-09T08:32:22.838Z,13.20
2022-11-09T08:34:54.721Z,13.20
2022-11-09T08:37:26.677Z,13.20
2022-11-09T08:39:58.489Z,13.30
2022-11-09T08:42:30.943Z,13.30
2022-11-09T08:45:03.033Z,13.40
2022-11-09T08:47:34.957Z,13.40
2022-11-09T08:50:08.038Z,13.40
2022-11-09T08:52:40.435Z,13.40
2022-11-09T08:55:12.361Z,13.30
2022-11-09T08:57:44.373Z,13.30
2022-11-09T09:00:16.641Z,13.20
2022-11-09T09:02:48.941Z,13.20
2022-11-09T09:05:21.559Z,13.10
2022-11-09T09:07:53.418Z,13.00
2022-11-09T09:10:25.683Z,13.00
2022-11-09T09:12:57.701Z,13.00
2022-11-09T09:15:30.293Z,13.10
2022-11-09T09:18:03.134Z,12.90
2022-11-09T09:20:35.042Z,12.90
2022-11-09T09:23:07.018Z,12.80
2022-11-09T09:25:38.842Z,12.90
2022-11-09T09:28:10.763Z,12.90
2022-11-09T09:30:42.602Z,12.90
2022-11-09T09:33:14.631Z,12.90
2022-11-09T09:35:47.041Z,13.00
2022-11-09T09:38:19.166Z,13.10
2022-11-09T09:41:01.041Z,13.20
2022-11-09T09:43:41.562Z,13.30
2022-11-09T09:46:37.700Z,13.40
2022-11-09T09:49:17.137Z,13.30
2022-11-09T09:52:04.230Z,13.40
2022-11-09T09:54:42.448Z,13.50
2022-11-09T09:57:20.334Z,13.40
2022-11-09T09:59:54.971Z,13.30
2022-11-09T10:02:29.195Z,13.40
2022-11-09T10:05:06.886Z,13.50
2022-11-09T10:07:50.541Z,13.50
2022-11-09T10:10:44.491Z,13.60
2022-11-09T10:13:51.287Z,13.70
2022-11-09T10:16:46.086Z,13.70
2022-11-09T10:19:36.044Z,13.70
2022-11-09T10:22:22.399Z,13.60
2022-11-09T10:28:01.388Z,13.50
2022-11-09T10:30:33.376Z,13.50
2022-11-09T10:33:11.518Z,13.40
2022-11-09T10:36:05.284Z,13.40
2022-11-09T10:38:44.947Z,13.30
2022-11-09T10:41:41.245Z,13.20
2022-11-09T10:44:31.657Z,13.30
2022-11-09T10:47:22.905Z,13.30
2022-11-09T10:50:28.348Z,13.40
2022-11-09T10:53:21.549Z,13.50
2022-11-09T10:56:21.200Z,13.60
2022-11-09T10:59:47.485Z,13.70
2022-11-09T11:02:43.392Z,14.00
2022-11-09T11:05:34.775Z,14.20
2022-11-09T11:08:37.475Z,14.30
2022-11-09T11:11:34.227Z,14.40
2022-11-09T11:14:32.997Z,14.50
2022-11-09T11:17:29.809Z,14.50
2022-11-09T11:20:30.925Z,14.30
2022-11-09T11:23:24.715Z,14.20
2022-11-09T11:26:37.771Z,14.20
2022-11-09T11:29:48.770Z,14.30
2022-11-09T11:32:39.073Z,14.30
2022-11-09T11:35:38.690Z,14.20
2022-11-09T11:38:35.312Z,14.20
2022-11-09T11:41:40.803Z,14.40
2022-11-09T11:44:49.169Z,14.50
2022-11-09T11:47:53.471Z,14.40
2022-11-09T11:51:16.509Z,14.30
2022-11-09T11:54:18.846Z,14.30
2022-11-09T11:57:28.106Z,14.20
2022-11-09T12:00:22.351Z,14.20
2022-11-09T12:03:38.239Z,14.10
2022-11-09T12:06:28.723Z,14.10
2022-11-09T12:09:26.593Z,14.10
2022-11-09T12:12:25.743Z,14.10
2022-11-09T12:15:34.282Z,14.00
2022-11-09T12:18:24.754Z,14.00
2022-11-09T12:21:17.652Z,13.90
2022-11-09T12:24:35.270Z,13.90
2022-11-09T12:27:43.122Z,13.80
2022-11-09T12:31:19.133Z,13.80
2022-11-09T12:34:16.524Z,13.80
2022-11-09T12:37:14.943Z,13.80
2022-11-09T12:40:27.170Z,13.80
2022-11-09T12:43:27.389Z,13.80
2022-11-09T12:46:22.630Z,13.80
2022-11-09T12:49:28.599Z,13.70
2022-11-09T12:52:23.040Z,13.70
2022-11-09T12:55:16.504Z,13.70
2022-11-09T12:58:07.121Z,13.70
2022-11-09T13:00:59.996Z,13.80
2022-11-09T13:03:55.324Z,13.90
2022-11-09T13:07:14.875Z,13.80
2022-11-09T13:10:06.286Z,13.70
2022-11-09T13:13:12.155Z,13.60
2022-11-09T13:16:24.079Z,13.60
2022-11-09T13:19:34.346Z,13.50
2022-11-09T13:22:27.425Z,13.50
2022-11-09T13:25:48.314Z,13.40
2022-11-09T13:28:43.268Z,13.30
2022-11-09T13:31:58.515Z,13.30
2022-11-09T13:34:54.599Z,13.30
2022-11-09T13:37:47.574Z,13.50
2022-11-09T13:40:42.723Z,13.50
2022-11-09T13:43:35.254Z,13.60
2022-11-09T13:46:39.209Z,13.70
2022-11-09T13:49:47.320Z,13.70
2022-11-09T13:52:52.122Z,13.70
2022-11-09T13:55:42.916Z,13.70
2022-11-09T13:58:38.809Z,13.80
2022-11-09T14:01:52.917Z,13.80
2022-11-09T14:04:44.529Z,13.80
2022-11-09T14:07:35.946Z,13.80
2022-11-09T14:10:54.549Z,13.70
2022-11-09T14:13:55.985Z,13.60
2022-11-09T14:17:12.086Z,13.60
2022-11-09T14:20:23.229Z,13.60
2022-11-09T14:23:18.433Z,13.70
2022-11-09T14:26:15.716Z,13.60
2022-11-09T14:29:25.699Z,13.60
2022-11-09T14:32:23.123Z,13.60
2022-11-09T14:35:22.983Z,13.50
2022-11-09T14:38:21.389Z,13.40
2022-11-09T14:41:22.825Z,13.50
2022-11-09T14:44:20.035Z,13.40
2022-11-09T14:47:20.136Z,13.40
2022-11-09T14:50:17.528Z,13.40
2022-11-09T14:53:13.894Z,13.40
2022-11-09T14:56:06.806Z,13.40
2022-11-09T14:58:58.050Z,13.40
2022-11-09T15:02:21.970Z,13.40
2022-11-09T15:05:34.358Z,13.40
2022-11-09T15:08:24.618Z,13.50
2022-11-09T15:11:14.929Z,13.60
2022-11-09T15:14:32.235Z,13.60
2022-11-09T15:17:29.538Z,13.70
2022-11-09T15:20:20.394Z,13.70
2022-11-09T15:23:37.953Z,13.70
2022-11-09T15:26:28.227Z,13.60
2022-11-09T15:29:40.318Z,13.60
2022-11-09T15:32:37.916Z,13.60
2022-11-09T15:35:29.705Z,13.60
2022-11-09T15:38:46.343Z,13.50
2022-11-09T15:41:37.686Z,13.40
2022-11-09T15:44:28.699Z,13.20
2022-11-09T15:47:24.147Z,13.10
2022-11-09T15:50:33.007Z,13.00
2022-11-09T15:53:23.664Z,13.00
2022-11-09T15:56:23.609Z,13.00
2022-11-09T15:59:22.895Z,12.90
2022-11-09T16:02:13.932Z,12.90
2022-11-09T16:05:04.993Z,12.90
2022-11-09T16:07:55.946Z,12.90
2022-11-09T16:10:46.374Z,12.90
2022-11-09T16:13:37.053Z,12.80
2022-11-09T16:16:28.456Z,12.70
2022-11-09T16:19:18.953Z,12.80
2022-11-09T16:22:11.998Z,12.80
2022-11-09T16:25:02.313Z,12.90
2022-11-09T16:27:53.502Z,12.90
2022-11-09T16:30:46.732Z,13.00
2022-11-09T16:33:37.552Z,13.00
2022-11-09T16:36:28.681Z,13.00
2022-11-09T16:39:19.522Z,13.10
2022-11-09T16:42:13.760Z,13.20
2022-11-09T16:45:10.823Z,13.30
2022-11-09T16:48:03.895Z,13.30
2022-11-09T16:50:54.977Z,13.40
2022-11-09T16:53:45.824Z,13.30
2022-11-09T16:56:36.406Z,13.20
2022-11-09T16:59:26.783Z,13.10
2022-11-09T17:02:17.403Z,13.10
2022-11-09T17:05:08.289Z,13.10
2022-11-09T17:07:59.029Z,13.10
2022-11-09T17:10:49.238Z,13.20
2022-11-09T17:13:39.821Z,13.20
2022-11-09T17:16:30.757Z,13.30
2022-11-09T17:19:21.097Z,13.20
2022-11-09T17:22:11.806Z,13.10
2022-11-09T17:25:03.142Z,12.90
2022-11-09T17:27:53.737Z,12.50
2022-11-09T17:30:44.777Z,12.30
2022-11-09T17:33:35.460Z,12.20
2022-11-09T17:36:56.729Z,12.10
2022-11-09T17:39:36.501Z,12.00
2022-11-09T17:42:27.135Z,12.00
2022-11-09T17:45:17.830Z,12.00
2022-11-09T17:48:08.325Z,12.00
2022-11-09T17:50:59.949Z,12.10
2022-11-09T17:53:50.269Z,12.10
2022-11-09T17:56:41.042Z,12.20
2022-11-09T17:59:31.390Z,12.30
2022-11-09T18:02:22.205Z,12.30
2022-11-09T18:05:15.774Z,12.30
2022-11-09T18:08:10.563Z,12.30
2022-11-09T18:11:00.740Z,12.40
2022-11-09T18:14:00.849Z,12.40
2022-11-09T18:16:51.572Z,12.60
2022-11-09T18:19:42.037Z,12.60
2022-11-09T18:22:40.007Z,12.60
2022-11-09T18:25:31.262Z,12.50
2022-11-09T18:28:21.983Z,12.50
2022-11-09T18:31:13.888Z,12.50
2022-11-09T18:34:04.426Z,12.50
2022-11-09T18:36:55.184Z,12.50
2022-11-09T18:39:45.657Z,12.50
2022-11-09T18:42:36.294Z,12.40
2022-11-09T18:45:27.211Z,12.30
2022-11-09T18:48:17.804Z,12.30
2022-11-09T18:51:09.250Z,12.20
2022-11-09T18:53:59.435Z,12.20
2022-11-09T18:56:49.802Z,12.20
2022-11-09T18:59:40.952Z,12.30
2022-11-09T19:02:31.127Z,12.30
2022-11-09T19:05:21.593Z,12.30
2022-11-09T19:08:12.249Z,12.40
2022-11-09T19:11:07.324Z,12.50
2022-11-09T19:13:58.668Z,12.50
2022-11-09T19:16:49.393Z,12.50
2022-11-09T19:19:40.848Z,12.50
2022-11-09T19:22:31.848Z,12.50
2022-11-09T19:25:22.245Z,12.50
2022-11-09T19:28:12.850Z,12.50
2022-11-09T19:31:03.684Z,12.50
2022-11-09T19:33:54.166Z,12.50
2022-11-09T19:36:46.107Z,12.40
2022-11-09T19:39:41.823Z,12.50
2022-11-09T19:42:34.390Z,12.60
2022-11-09T19:45:25.255Z,12.60
2022-11-09T19:48:15.999Z,12.50
2022-11-09T19:51:06.740Z,12.50
2022-11-09T19:53:59.074Z,12.60
2022-11-09T19:56:49.465Z,12.60
2022-11-09T19:59:40.011Z,12.70
2022-11-09T20:02:31.298Z,12.60
2022-11-09T20:05:21.996Z,12.60
2022-11-09T20:08:12.139Z,12.60
2022-11-09T20:11:33.296Z,12.60
2022-11-09T20:14:23.751Z,12.60
2022-11-09T20:17:14.541Z,12.60
2022-11-09T20:20:05.216Z,12.60
2022-11-09T20:22:55.814Z,12.60
2022-11-09T20:25:46.368Z,12.70
2022-11-09T20:28:37.402Z,12.70
2022-11-09T20:31:29.046Z,12.70
2022-11-09T20:34:19.528Z,12.70
2022-11-09T20:37:10.476Z,12.70
2022-11-09T20:40:01.623Z,12.60
2022-11-09T20:42:52.788Z,12.60
2022-11-09T20:45:43.650Z,12.60
2022-11-09T20:48:53.504Z,12.70
2022-11-09T20:51:46.220Z,12.70
2022-11-09T20:54:37.435Z,12.80
2022-11-09T20:57:27.995Z,12.90
2022-11-09T21:00:24.021Z,12.90
2022-11-09T21:03:15.341Z,12.80
2022-11-09T21:06:07.610Z,12.80
2022-11-09T21:09:01.085Z,12.80
2022-11-09T21:12:10.510Z,12.90
2022-11-09T21:15:00.818Z,12.90
2022-11-09T21:17:51.551Z,12.90
2022-11-09T21:20:42.299Z,12.90
2022-11-09T21:23:52.421Z,12.90
2022-11-09T21:27:01.444Z,12.90
2022-11-09T21:29:51.871Z,12.90
2022-11-09T21:32:42.310Z,13.00
2022-11-09T21:35:32.851Z,13.00
2022-11-09T21:38:23.931Z,13.00
2022-11-09T21:41:33.085Z,13.10
2022-11-09T21:44:23.813Z,13.10
2022-11-09T21:47:14.256Z,13.20
2022-11-09T21:50:09.609Z,13.20
2022-11-09T21:53:02.908Z,13.20
2022-11-09T21:55:53.361Z,13.10
2022-11-09T21:58:47.153Z,13.00
2022-11-09T22:01:37.727Z,12.90
2022-11-09T22:04:28.163Z,12.90
2022-11-09T22:07:18.897Z,12.90
2022-11-09T22:10:11.283Z,12.90
2022-11-09T22:13:20.803Z,12.90
2022-11-09T22:16:12.699Z,12.90
2022-11-09T22:19:21.709Z,12.90
2022-11-09T22:22:13.781Z,12.90
2022-11-09T22:25:04.232Z,13.00
2022-11-09T22:27:55.917Z,13.00
2022-11-09T22:30:46.520Z,13.00
2022-11-09T22:33:36.961Z,13.00
2022-11-09T22:36:27.581Z,13.00
2022-11-09T22:39:18.216Z,13.00
2022-11-09T22:42:09.117Z,13.10
2022-11-09T22:44:59.715Z,13.00
2022-11-09T22:47:50.257Z,13.10
2022-11-09T22:50:40.723Z,13.10
2022-11-09T22:53:31.924Z,13.10
2022-11-09T22:56:22.171Z,13.10
2022-11-09T22:59:12.513Z,13.10
2022-11-09T23:02:03.108Z,13.10
2022-11-09T23:04:53.713Z,13.20
2022-11-09T23:07:44.259Z,13.30
2022-11-09T23:10:35.060Z,13.30
2022-11-09T23:13:25.847Z,13.20
2022-11-09T23:16:16.383Z,13.20
2022-11-09T23:19:07.021Z,13.20
2022-11-09T23:21:57.565Z,13.20
2022-11-09T23:25:06.391Z,13.20
2022-11-09T23:27:57.353Z,13.10
2022-11-09T23:30:48.027Z,13.10
2022-11-09T23:33:38.345Z,13.10
2022-11-09T23:36:29.171Z,13.10
2022-11-09T23:39:19.359Z,13.00
2022-11-09T23:42:09.770Z,13.10
2022-11-09T23:45:00.293Z,13.20
2022-11-09T23:47:52.953Z,13.20
2022-11-09T23:50:44.562Z,13.20
2022-11-09T23:53:36.559Z,13.30
2022-11-09T23:56:26.766Z,13.30
2022-11-09T23:59:17.253Z,13.30
